Time;durP1;ratioP1;P1;durP2;ratioP2;P2;SDS_P1;SDS_P2;PMS_P1;PMS_P2;Temp;Humidity;BMP_temperature;BMP_pressure;BME280_temperature;BME280_humidity;BME280_pressure;Samples;Min_cycle;Max_cycle;Signal;HPM_P1;HPM_P2
2023/03/10 00:03:43;;;;;;;;;;;15.50;58.90;;;;;;10206875;28;93958;-75
2023/03/10 00:08:45;;;;;;;;;;;15.50;59.00;;;;;;10205456;28;93881;-75
2023/03/10 00:13:46;;;;;;;;;;;15.50;58.90;;;;;;10212292;28;93854;-75
2023/03/10 00:18:49;;;;;;;;;;;15.50;58.80;;;;;;10209733;28;95880;-75
2023/03/10 00:23:50;;;;;;;;;;;15.50;58.60;;;;;;10212150;28;94545;-75
2023/03/10 00:28:52;;;;;;;;;;;15.50;58.60;;;;;;10212512;28;93573;-75
2023/03/10 00:33:54;;;;;;;;;;;15.40;58.50;;;;;;10211679;28;94442;-75
2023/03/10 00:38:56;;;;;;;;;;;15.40;58.50;;;;;;10194297;28;93497;-75
2023/03/10 00:43:59;;;;;;;;;;;15.40;59.60;;;;;;10211685;28;93240;-74
2023/03/10 00:49:01;;;;;;;;;;;15.40;58.60;;;;;;10211560;28;94487;-74
2023/03/10 00:54:02;;;;;;;;;;;15.40;58.60;;;;;;10193963;28;93117;-75
2023/03/10 00:59:05;;;;;;;;;;;15.40;58.60;;;;;;10210810;28;93468;-74
2023/03/10 01:04:08;;;;;;;;;;;15.40;58.50;;;;;;10211405;28;93330;-74
2023/03/10 01:09:10;;;;;;;;;;;15.40;58.40;;;;;;10208940;28;95869;-75
2023/03/10 01:14:13;;;;;;;;;;;15.40;58.30;;;;;;10211442;28;94263;-75
2023/03/10 01:19:17;;;;;;;;;;;15.40;58.30;;;;;;10210855;28;94264;-75
2023/03/10 01:24:18;;;;;;;;;;;15.40;58.20;;;;;;10209584;28;93481;-74
2023/03/10 01:29:20;;;;;;;;;;;15.30;58.10;;;;;;10209974;28;93575;-75
2023/03/10 01:34:22;;;;;;;;;;;15.30;58.20;;;;;;10210158;28;94552;-74
2023/03/10 01:39:23;;;;;;;;;;;15.30;58.20;;;;;;10209612;28;94559;-74
2023/03/10 01:44:25;;;;;;;;;;;15.20;58.20;;;;;;10211435;28;93671;-75
2023/03/10 01:49:27;;;;;;;;;;;15.20;58.20;;;;;;10208715;28;93653;-74
2023/03/10 01:54:32;;;;;;;;;;;15.20;58.20;;;;;;10209395;28;94009;-74
2023/03/10 01:59:34;;;;;;;;;;;15.20;58.30;;;;;;10206566;28;96922;-75
2023/03/10 02:04:40;;;;;;;;;;;15.10;58.30;;;;;;10208737;28;93574;-75
2023/03/10 02:09:43;;;;;;;;;;;15.20;58.20;;;;;;10175602;28;94827;-74
2023/03/10 02:14:46;;;;;;;;;;;15.20;58.50;;;;;;10209356;28;94323;-74
2023/03/10 02:20:26;;;;;;;;;;;15.30;58.30;;;;;;10208129;28;93591;-75
2023/03/10 02:25:46;;;;;;;;;;;15.30;58.10;;;;;;10027323;29;94010;-75
2023/03/10 02:30:49;;;;;;;;;;;15.30;58.00;;;;;;10180965;28;94067;-75
2023/03/10 02:35:51;;;;;;;;;;;15.30;57.80;;;;;;10209463;28;92450;-75
2023/03/10 02:40:54;;;;;;;;;;;15.30;57.70;;;;;;10208282;28;94627;-75
2023/03/10 02:45:58;;;;;;;;;;;15.30;57.80;;;;;;10207306;28;93617;-75
2023/03/10 02:51:05;;;;;;;;;;;15.30;57.70;;;;;;10186857;28;96895;-75
2023/03/10 02:56:07;;;;;;;;;;;15.30;57.80;;;;;;10207991;28;94451;-74
2023/03/10 03:01:08;;;;;;;;;;;15.30;57.60;;;;;;10207775;28;94406;-75
2023/03/10 03:06:10;;;;;;;;;;;15.30;57.70;;;;;;10188924;28;93179;-75
2023/03/10 03:11:14;;;;;;;;;;;15.20;57.60;;;;;;10188922;28;93940;-75
2023/03/10 03:16:15;;;;;;;;;;;15.20;57.60;;;;;;10206113;28;93516;-75
2023/03/10 03:21:17;;;;;;;;;;;15.20;57.60;;;;;;10205863;28;93629;-75
2023/03/10 03:26:20;;;;;;;;;;;15.10;57.50;;;;;;10207685;28;93515;-74
2023/03/10 03:31:23;;;;;;;;;;;15.20;57.70;;;;;;10188746;28;93634;-76
2023/03/10 03:36:25;;;;;;;;;;;15.10;57.60;;;;;;10205673;28;93870;-75
2023/03/10 03:41:27;;;;;;;;;;;15.10;57.70;;;;;;10203584;28;95248;-75
2023/03/10 03:46:28;;;;;;;;;;;15.10;57.80;;;;;;10209730;28;92529;-74
2023/03/10 03:51:30;;;;;;;;;;;15.10;57.80;;;;;;10212500;28;94690;-75
2023/03/10 03:56:32;;;;;;;;;;;15.20;57.80;;;;;;10213490;28;94422;-75
2023/03/10 04:01:33;;;;;;;;;;;15.10;57.60;;;;;;10213441;28;94463;-74
2023/03/10 04:06:35;;;;;;;;;;;15.20;57.50;;;;;;10196403;28;95738;-75
2023/03/10 04:11:37;;;;;;;;;;;15.20;57.40;;;;;;10195940;28;93504;-75
2023/03/10 04:16:38;;;;;;;;;;;15.20;57.40;;;;;;10195347;28;92891;-75
2023/03/10 04:21:40;;;;;;;;;;;15.20;57.40;;;;;;10212420;28;93325;-74
2023/03/10 04:26:42;;;;;;;;;;;15.10;57.40;;;;;;10213264;28;94614;-74
2023/03/10 04:31:44;;;;;;;;;;;15.10;57.40;;;;;;10192800;28;96971;-76
2023/03/10 04:36:59;;;;;;;;;;;15.10;57.40;;;;;;10211665;28;93414;-75
2023/03/10 04:42:01;;;;;;;;;;;15.10;57.40;;;;;;10211008;28;94067;-75
2023/03/10 06:05:00;;;;;;;;;;;15.50;57.10;;;;;;10196169;28;96911;-64
2023/03/10 06:10:02;;;;;;;;;;;15.80;56.70;;;;;;10209585;28;94203;-64
2023/03/10 06:15:04;;;;;;;;;;;15.90;56.40;;;;;;10192338;28;93065;-65
2023/03/10 06:20:06;;;;;;;;;;;16.10;56.10;;;;;;10208474;28;94380;-67
2023/03/10 06:25:09;;;;;;;;;;;16.20;56.30;;;;;;10208689;28;94607;-67
2023/03/10 06:30:10;;;;;;;;;;;16.30;55.80;;;;;;10189055;28;96886;-65
2023/03/10 06:35:13;;;;;;;;;;;16.40;55.60;;;;;;10179785;28;94227;-64
2023/03/10 06:40:14;;;;;;;;;;;16.50;55.70;;;;;;10207488;28;94181;-65
2023/03/10 06:45:16;;;;;;;;;;;16.50;55.70;;;;;;10191404;28;93406;-65
2023/03/10 06:50:18;;;;;;;;;;;16.50;55.90;;;;;;10204399;28;93518;-65
2023/03/10 06:55:20;;;;;;;;;;;16.40;57.00;;;;;;10207430;28;93481;-66
2023/03/10 07:00:21;;;;;;;;;;;16.50;56.30;;;;;;10207705;28;93649;-66
2023/03/10 07:05:23;;;;;;;;;;;16.60;58.20;;;;;;10207392;28;94105;-66
2023/03/10 07:10:25;;;;;;;;;;;16.70;57.60;;;;;;10207146;28;93967;-63
2023/03/10 07:15:26;;;;;;;;;;;16.80;57.50;;;;;;10207682;28;93806;-64
2023/03/10 07:20:28;;;;;;;;;;;16.90;57.40;;;;;;10205159;28;95866;-63
2023/03/10 07:25:30;;;;;;;;;;;17.10;57.30;;;;;;10190278;28;94517;-65
2023/03/10 07:30:32;;;;;;;;;;;17.20;57.10;;;;;;10207035;28;93501;-64
2023/03/10 07:35:35;;;;;;;;;;;17.20;56.70;;;;;;10206592;28;93873;-64
2023/03/10 07:40:38;;;;;;;;;;;17.30;57.30;;;;;;10187897;28;94435;-64
2023/03/10 07:45:40;;;;;;;;;;;17.40;56.20;;;;;;10205971;28;93523;-64
2023/03/10 07:50:42;;;;;;;;;;;17.40;55.90;;;;;;10187970;28;93488;-64
2023/03/10 07:55:44;;;;;;;;;;;17.50;55.80;;;;;;10207214;28;93736;-64
2023/03/10 08:00:45;;;;;;;;;;;17.60;55.60;;;;;;10206273;28;93505;-64
2023/03/10 08:05:47;;;;;;;;;;;17.70;55.50;;;;;;10205956;28;94437;-64
2023/03/10 08:10:49;;;;;;;;;;;17.70;55.20;;;;;;10203780;28;95900;-64
2023/03/10 08:15:51;;;;;;;;;;;17.70;55.10;;;;;;10205764;28;94204;-65
2023/03/10 08:20:52;;;;;;;;;;;17.60;55.30;;;;;;10204842;28;94265;-64
2023/03/10 08:25:54;;;;;;;;;;;17.60;55.30;;;;;;10206176;28;94287;-64
2023/03/10 08:30:57;;;;;;;;;;;17.60;55.30;;;;;;10207338;28;94545;-65
2023/03/10 08:36:07;;;;;;;;;;;17.60;55.40;;;;;;10212690;28;93982;-64
2023/03/10 08:41:10;;;;;;;;;;;17.70;55.30;;;;;;10212206;28;93786;-65
2023/03/10 08:46:12;;;;;;;;;;;17.70;55.20;;;;;;10194981;28;93502;-65
2023/03/10 08:51:16;;;;;;;;;;;17.70;55.10;;;;;;10210672;28;94752;-64
2023/03/10 08:56:19;;;;;;;;;;;17.80;55.00;;;;;;10211834;28;94238;-65
2023/03/10 09:01:21;;;;;;;;;;;17.80;54.80;;;;;;10192258;28;97040;-65
2023/03/10 09:06:22;;;;;;;;;;;17.80;54.70;;;;;;10211119;28;94427;-64
2023/03/10 09:11:25;;;;;;;;;;;17.80;54.70;;;;;;10211204;28;94526;-64
2023/03/10 09:16:27;;;;;;;;;;;17.70;54.80;;;;;;10210943;28;93402;-64
2023/03/10 09:21:30;;;;;;;;;;;17.70;55.00;;;;;;10211178;28;92885;-64
2023/03/10 09:26:34;;;;;;;;;;;17.70;54.90;;;;;;10178516;28;93481;-64
2023/03/10 09:31:38;;;;;;;;;;;17.80;54.90;;;;;;10210219;28;94261;-64
2023/03/10 09:36:39;;;;;;;;;;;17.80;54.80;;;;;;10210879;28;93217;-64
2023/03/10 09:42:20;;;;;;;;;;;17.90;54.70;;;;;;10209259;28;93418;-64
2023/03/10 09:47:48;;;;;;;;;;;17.90;54.50;;;;;;10084394;28;94017;-65
2023/03/10 09:52:57;;;;;;;;;;;17.90;54.40;;;;;;10190038;28;96868;-64
2023/03/10 09:57:59;;;;;;;;;;;17.90;54.40;;;;;;10209938;28;93608;-66
2023/03/10 10:03:06;;;;;;;;;;;17.80;54.60;;;;;;10192876;28;94591;-66
2023/03/10 10:08:23;;;;;;;;;;;17.80;54.60;;;;;;10209023;28;93642;-65
2023/03/10 10:13:34;;;;;;;;;;;17.80;54.60;;;;;;10208127;28;114178;-66
2023/03/10 10:18:38;;;;;;;;;;;17.90;54.60;;;;;;10209162;28;93632;-66
2023/03/10 10:23:48;;;;;;;;;;;17.90;54.40;;;;;;10208424;28;93424;-65
2023/03/10 10:28:56;;;;;;;;;;;18.00;54.40;;;;;;10209087;28;93798;-66
2023/03/10 10:33:59;;;;;;;;;;;17.90;54.20;;;;;;10209038;28;93463;-66
2023/03/10 10:39:02;;;;;;;;;;;17.80;54.30;;;;;;10209231;28;93453;-66
2023/03/10 10:44:06;;;;;;;;;;;17.80;54.50;;;;;;10189068;28;95972;-66
2023/03/10 10:49:27;;;;;;;;;;;17.80;54.60;;;;;;10208109;28;94484;-65
2023/03/10 10:54:39;;;;;;;;;;;17.80;54.60;;;;;;10189842;28;94632;-66
2023/03/10 10:59:41;;;;;;;;;;;17.80;54.40;;;;;;10207651;28;93953;-66
2023/03/10 11:04:44;;;;;;;;;;;17.90;54.30;;;;;;10207444;28;93602;-66
2023/03/10 11:09:46;;;;;;;;;;;17.90;54.20;;;;;;10208184;28;94433;-65
2023/03/10 11:14:48;;;;;;;;;;;17.80;54.20;;;;;;10206409;28;93452;-65
2023/03/10 11:20:07;;;;;;;;;;;17.80;54.40;;;;;;10207814;28;92727;-66
2023/03/10 11:25:15;;;;;;;;;;;17.80;54.40;;;;;;10207197;28;94555;-66
2023/03/10 11:30:19;;;;;;;;;;;17.80;54.40;;;;;;10207162;28;93272;-66
2023/03/10 11:35:31;;;;;;;;;;;17.80;54.30;;;;;;10204866;28;97244;-65
2023/03/10 11:40:35;;;;;;;;;;;17.90;54.10;;;;;;10207033;28;94042;-66
2023/03/10 11:45:52;;;;;;;;;;;17.90;54.00;;;;;;10207591;28;93314;-66
2023/03/10 11:50:57;;;;;;;;;;;17.80;53.90;;;;;;10206003;28;93596;-66
2023/03/10 11:56:00;;;;;;;;;;;17.80;54.10;;;;;;10206591;28;93702;-66
2023/03/10 12:01:02;;;;;;;;;;;17.80;54.80;;;;;;10207180;28;93390;-65
2023/03/10 12:06:06;;;;;;;;;;;17.80;54.50;;;;;;10209631;28;94629;-66
2023/03/10 12:11:12;;;;;;;;;;;17.90;54.40;;;;;;10214260;28;93654;-66
2023/03/10 12:16:17;;;;;;;;;;;17.90;54.50;;;;;;10213236;28;94610;-70
2023/03/10 12:21:22;;;;;;;;;;;17.90;57.00;;;;;;10212433;28;93674;-68
2023/03/10 12:26:36;;;;;;;;;;;18.00;58.40;;;;;;10210529;28;96855;-70
2023/03/10 12:31:38;;;;;;;;;;;18.00;56.10;;;;;;10213361;28;95149;-67
2023/03/10 12:36:42;;;;;;;;;;;18.10;55.70;;;;;;10213039;28;93705;-66
2023/03/10 12:41:51;;;;;;;;;;;18.10;55.30;;;;;;10212661;28;94499;-66
2023/03/10 12:47:07;;;;;;;;;;;18.10;55.40;;;;;;10209628;28;93569;-65
2023/03/10 12:52:16;;;;;;;;;;;18.10;55.30;;;;;;10210224;28;94464;-65
2023/03/10 12:57:23;;;;;;;;;;;18.10;55.40;;;;;;10196631;28;92513;-68
2023/03/10 13:02:30;;;;;;;;;;;18.20;55.30;;;;;;10195295;28;92755;-66
2023/03/10 13:07:34;;;;;;;;;;;18.30;55.00;;;;;;10210889;28;93551;-66
2023/03/10 13:12:44;;;;;;;;;;;18.30;54.70;;;;;;10211382;28;94003;-65
2023/03/10 13:17:46;;;;;;;;;;;18.30;54.80;;;;;;10206977;28;95718;-69
2023/03/10 13:22:52;;;;;;;;;;;18.30;54.80;;;;;;10210877;28;93584;-69
2023/03/10 13:27:56;;;;;;;;;;;18.30;55.00;;;;;;10212016;28;93062;-68
2023/03/10 13:33:00;;;;;;;;;;;18.30;55.00;;;;;;10210971;28;94248;-68
2023/03/10 13:38:02;;;;;;;;;;;18.30;54.90;;;;;;10210272;28;94374;-68
2023/03/10 13:43:05;;;;;;;;;;;18.40;54.90;;;;;;10211193;28;93462;-70
2023/03/10 13:48:10;;;;;;;;;;;18.40;54.70;;;;;;10191622;28;92847;-68
2023/03/10 13:53:23;;;;;;;;;;;18.40;55.50;;;;;;10179054;28;94053;-69
2023/03/10 13:58:24;;;;;;;;;;;18.40;55.00;;;;;;10210347;28;94280;-71
2023/03/10 14:03:26;;;;;;;;;;;18.40;54.90;;;;;;10211899;28;93656;-67
2023/03/10 14:08:32;;;;;;;;;;;18.40;55.10;;;;;;10206913;28;97216;-68
2023/03/10 14:13:37;;;;;;;;;;;18.50;55.00;;;;;;10209093;28;93702;-70
2023/03/10 14:18:40;;;;;;;;;;;18.50;54.80;;;;;;10209541;28;94371;-67
2023/03/10 14:23:42;;;;;;;;;;;18.50;54.80;;;;;;10175928;28;93109;-65
2023/03/10 14:28:44;;;;;;;;;;;18.40;54.80;;;;;;10209243;28;94389;-65
2023/03/10 14:33:46;;;;;;;;;;;18.30;54.60;;;;;;10208813;28;94509;-65
2023/03/10 14:38:47;;;;;;;;;;;18.30;54.80;;;;;;10191467;28;94027;-66
2023/03/10 14:43:50;;;;;;;;;;;18.40;54.50;;;;;;10208966;28;92753;-66
2023/03/10 14:48:52;;;;;;;;;;;18.40;54.30;;;;;;10208337;28;92617;-66
2023/03/10 14:53:54;;;;;;;;;;;18.40;54.10;;;;;;10208272;28;93511;-67
2023/03/10 14:58:57;;;;;;;;;;;18.40;55.70;;;;;;10205831;28;95317;-69
2023/03/10 15:03:58;;;;;;;;;;;18.30;55.60;;;;;;10191032;28;92796;-67
2023/03/10 15:09:00;;;;;;;;;;;18.30;54.80;;;;;;10190255;28;93375;-67
2023/03/10 15:14:14;;;;;;;;;;;18.30;54.50;;;;;;10208164;28;93737;-67
2023/03/10 15:19:23;;;;;;;;;;;18.30;54.40;;;;;;10190366;28;94347;-67
2023/03/10 15:24:24;;;;;;;;;;;18.40;54.20;;;;;;10208133;28;94236;-67
2023/03/10 15:29:26;;;;;;;;;;;18.30;54.00;;;;;;10207330;28;92938;-67
2023/03/10 15:34:28;;;;;;;;;;;18.30;53.90;;;;;;10206188;28;93732;-68
2023/03/10 15:39:29;;;;;;;;;;;18.30;54.10;;;;;;10208438;28;94286;-67
2023/03/10 15:44:34;;;;;;;;;;;18.20;54.10;;;;;;10220927;28;94721;-66
2023/03/10 15:49:37;;;;;;;;;;;18.30;54.10;;;;;;10217401;28;94977;-66
2023/03/10 15:54:39;;;;;;;;;;;18.30;53.80;;;;;;10221194;28;94536;-66
2023/03/10 15:59:41;;;;;;;;;;;18.30;53.70;;;;;;10221114;28;93306;-67
2023/03/10 16:04:43;;;;;;;;;;;18.20;53.70;;;;;;10218732;28;94560;-67
2023/03/10 16:09:46;;;;;;;;;;;18.20;53.90;;;;;;10219590;28;94640;-65
2023/03/10 16:14:47;;;;;;;;;;;18.20;54.70;;;;;;10218803;28;94756;-66
2023/03/10 16:19:49;;;;;;;;;;;18.20;54.50;;;;;;10219072;28;93238;-66
2023/03/10 16:24:51;;;;;;;;;;;18.30;53.90;;;;;;10202612;28;92613;-67
2023/03/10 16:29:53;;;;;;;;;;;18.30;53.50;;;;;;10201089;28;93519;-66
2023/03/10 16:34:55;;;;;;;;;;;18.30;53.50;;;;;;10219153;28;92564;-66
2023/03/10 16:39:56;;;;;;;;;;;18.30;54.10;;;;;;10215662;28;95789;-67
2023/03/10 16:44:58;;;;;;;;;;;18.30;53.10;;;;;;10219174;28;94245;-66
2023/03/10 16:50:00;;;;;;;;;;;18.30;53.00;;;;;;10217427;28;93372;-67
2023/03/10 16:55:03;;;;;;;;;;;18.30;53.10;;;;;;10211290;28;94037;-66
2023/03/10 17:00:08;;;;;;;;;;;18.30;53.10;;;;;;10211881;28;94692;-66
2023/03/10 17:05:09;;;;;;;;;;;18.40;52.90;;;;;;10211404;28;93682;-67
2023/03/10 17:10:11;;;;;;;;;;;18.40;52.70;;;;;;10212135;28;93436;-69
2023/03/10 17:15:13;;;;;;;;;;;18.40;53.40;;;;;;10180192;28;93779;-69
2023/03/10 17:20:17;;;;;;;;;;;18.40;54.30;;;;;;10194979;28;93546;-67
2023/03/10 17:25:19;;;;;;;;;;;18.30;54.60;;;;;;10193249;28;94308;-67
2023/03/10 17:30:20;;;;;;;;;;;18.30;54.80;;;;;;10210080;28;98964;-68
2023/03/10 17:35:22;;;;;;;;;;;18.40;55.10;;;;;;10210744;28;94502;-67
2023/03/10 17:40:24;;;;;;;;;;;18.60;54.60;;;;;;10210321;28;93825;-68
2023/03/10 17:45:25;;;;;;;;;;;18.80;54.80;;;;;;10209913;28;94523;-68
2023/03/10 17:50:27;;;;;;;;;;;19.00;53.60;;;;;;10209687;28;93461;-67
2023/03/10 17:55:29;;;;;;;;;;;18.90;53.80;;;;;;10210130;28;93491;-67
2023/03/10 18:00:30;;;;;;;;;;;18.90;55.00;;;;;;10209793;28;93958;-66
2023/03/10 18:05:37;;;;;;;;;;;18.90;60.60;;;;;;10209000;28;92743;-67
2023/03/10 18:10:39;;;;;;;;;;;19.00;57.70;;;;;;10192492;28;94955;-68
2023/03/10 18:15:41;;;;;;;;;;;18.90;56.50;;;;;;10209953;28;95033;-67
2023/03/10 18:20:43;;;;;;;;;;;18.80;56.50;;;;;;10188434;28;95586;-67
2023/03/10 18:25:45;;;;;;;;;;;18.80;56.50;;;;;;10210126;28;94330;-67
2023/03/10 18:30:48;;;;;;;;;;;18.70;56.60;;;;;;10210167;28;94246;-67
2023/03/10 18:35:50;;;;;;;;;;;18.60;56.70;;;;;;10192252;28;93466;-68
2023/03/10 18:40:55;;;;;;;;;;;18.50;56.90;;;;;;10208767;28;94591;-68
2023/03/10 18:45:57;;;;;;;;;;;18.50;57.20;;;;;;10207900;28;93249;-68
2023/03/10 18:50:59;;;;;;;;;;;18.40;57.30;;;;;;10207489;28;93795;-68
2023/03/10 18:56:01;;;;;;;;;;;18.30;57.60;;;;;;10209355;28;93532;-68
2023/03/10 19:01:07;;;;;;;;;;;18.30;57.80;;;;;;10208096;28;94407;-68
2023/03/10 19:06:09;;;;;;;;;;;18.20;57.90;;;;;;10208103;28;93144;-68
2023/03/10 19:11:11;;;;;;;;;;;18.30;58.00;;;;;;10205223;28;95643;-69
2023/03/10 19:16:13;;;;;;;;;;;18.30;57.90;;;;;;10188469;28;94529;-68
2023/03/10 19:21:15;;;;;;;;;;;18.40;57.70;;;;;;10189475;28;93346;-68
2023/03/10 19:26:17;;;;;;;;;;;18.40;57.70;;;;;;10207262;28;94367;-68
2023/03/10 19:31:19;;;;;;;;;;;18.40;57.70;;;;;;10205914;28;93358;-68
2023/03/10 19:36:22;;;;;;;;;;;18.40;57.50;;;;;;10207021;28;93609;-67
2023/03/10 19:41:24;;;;;;;;;;;18.40;57.70;;;;;;10206233;28;93294;-66
2023/03/10 19:46:26;;;;;;;;;;;18.50;57.60;;;;;;10207951;28;92435;-67
2023/03/10 19:51:28;;;;;;;;;;;18.50;57.20;;;;;;10134877;28;93320;-67
2023/03/10 19:56:30;;;;;;;;;;;18.40;57.00;;;;;;10167214;28;94239;-67
2023/03/10 20:01:32;;;;;;;;;;;18.40;56.90;;;;;;10148024;28;96199;-67
2023/03/10 20:06:33;;;;;;;;;;;18.40;56.80;;;;;;10166480;28;93605;-67
2023/03/10 20:11:39;;;;;;;;;;;18.40;56.80;;;;;;10148821;28;93465;-66
2023/03/10 20:16:41;;;;;;;;;;;18.50;56.60;;;;;;10166152;28;94480;-67
2023/03/10 20:21:43;;;;;;;;;;;18.60;56.30;;;;;;10149699;28;93471;-67
2023/03/10 20:26:44;;;;;;;;;;;18.60;56.10;;;;;;10166698;28;93662;-67
2023/03/10 20:31:46;;;;;;;;;;;18.70;56.00;;;;;;10172973;28;93470;-66
2023/03/10 20:36:48;;;;;;;;;;;18.60;55.80;;;;;;10172761;28;92790;-66
2023/03/10 20:41:49;;;;;;;;;;;18.60;55.70;;;;;;10173110;28;94496;-67
2023/03/10 20:46:51;;;;;;;;;;;18.50;55.80;;;;;;10175635;28;93394;-67
2023/03/10 20:51:53;;;;;;;;;;;18.40;55.90;;;;;;10210824;28;96958;-66
2023/03/10 20:56:55;;;;;;;;;;;18.30;55.90;;;;;;10212336;28;93607;-67
2023/03/10 21:01:56;;;;;;;;;;;18.20;56.00;;;;;;10211434;28;94444;-66
2023/03/10 21:06:58;;;;;;;;;;;18.10;56.10;;;;;;10212659;28;93269;-66
2023/03/10 21:12:00;;;;;;;;;;;18.00;57.10;;;;;;10212372;28;93371;-66
2023/03/10 21:17:01;;;;;;;;;;;17.90;56.20;;;;;;10211858;28;93500;-66
2023/03/10 21:22:03;;;;;;;;;;;17.80;56.30;;;;;;10193539;28;93606;-65
2023/03/10 21:27:05;;;;;;;;;;;17.80;56.50;;;;;;10212143;28;92601;-65
2023/03/10 21:32:07;;;;;;;;;;;17.70;56.70;;;;;;10210984;28;93562;-66
2023/03/10 21:37:09;;;;;;;;;;;17.60;56.80;;;;;;10210369;28;93939;-65
2023/03/10 21:42:14;;;;;;;;;;;17.60;57.00;;;;;;10207722;28;96056;-65
2023/03/10 21:47:15;;;;;;;;;;;17.50;57.20;;;;;;10208804;28;93416;-65
2023/03/10 21:52:17;;;;;;;;;;;17.40;57.00;;;;;;10192934;28;93700;-65
2023/03/10 21:57:19;;;;;;;;;;;17.40;57.30;;;;;;10210135;28;93266;-66
2023/03/10 22:02:28;;;;;;;;;;;17.30;57.40;;;;;;10191713;28;93404;-67
2023/03/10 22:07:30;;;;;;;;;;;17.30;57.70;;;;;;10192502;28;94479;-65
2023/03/10 22:12:32;;;;;;;;;;;17.30;57.30;;;;;;10210039;28;94440;-66
2023/03/10 22:17:33;;;;;;;;;;;17.20;57.20;;;;;;10209997;28;92924;-66
2023/03/10 22:22:35;;;;;;;;;;;17.10;58.10;;;;;;10208497;28;94042;-65
2023/03/10 22:27:37;;;;;;;;;;;17.10;57.10;;;;;;10209712;28;94589;-65
2023/03/10 22:32:39;;;;;;;;;;;17.00;57.00;;;;;;10205776;28;95883;-66
2023/03/10 22:37:41;;;;;;;;;;;17.00;57.10;;;;;;10208516;28;93311;-66
2023/03/10 22:42:43;;;;;;;;;;;16.90;57.10;;;;;;10208493;28;93496;-66
2023/03/10 22:47:45;;;;;;;;;;;16.90;57.10;;;;;;10189645;28;92846;-66
2023/03/10 22:52:47;;;;;;;;;;;16.80;57.00;;;;;;10190839;28;93440;-66
2023/03/10 22:57:49;;;;;;;;;;;16.80;57.00;;;;;;10208001;28;93539;-66
2023/03/10 23:02:52;;;;;;;;;;;16.70;57.00;;;;;;10191466;28;94161;-66
2023/03/10 23:07:54;;;;;;;;;;;16.70;57.00;;;;;;10208355;28;92760;-66
2023/03/10 23:12:59;;;;;;;;;;;16.70;57.00;;;;;;10191073;28;93444;-66
2023/03/10 23:18:02;;;;;;;;;;;16.60;57.00;;;;;;10207638;28;93672;-66
2023/03/10 23:23:04;;;;;;;;;;;16.60;57.00;;;;;;10206071;28;96828;-66
2023/03/10 23:28:07;;;;;;;;;;;16.60;56.90;;;;;;10207463;28;93196;-66
2023/03/10 23:33:11;;;;;;;;;;;16.50;56.80;;;;;;10190966;28;93593;-66
2023/03/10 23:38:13;;;;;;;;;;;16.50;56.90;;;;;;10206339;28;93661;-66
2023/03/10 23:43:15;;;;;;;;;;;16.50;56.80;;;;;;10206988;28;93329;-65
2023/03/10 23:48:17;;;;;;;;;;;16.40;56.90;;;;;;10206876;28;94473;-66
2023/03/10 23:53:19;;;;;;;;;;;16.40;56.90;;;;;;10206337;28;93212;-66
2023/03/10 23:58:21;;;;;;;;;;;16.40;56.90;;;;;;10207201;28;92721;-66
